createdAt,value
2023-05-10T00:04:04.423Z,6.90
2023-05-10T00:09:07.600Z,6.20
2023-05-10T00:14:10.500Z,5.67
2023-05-10T00:19:13.361Z,5.19
2023-05-10T00:24:16.202Z,6.64
2023-05-10T00:29:19.051Z,10.36
2023-05-10T00:34:21.954Z,9.10
2023-05-10T00:39:24.816Z,7.39
2023-05-10T00:44:27.672Z,6.47
2023-05-10T00:49:31.122Z,5.79
2023-05-10T00:54:33.881Z,5.22
2023-05-10T00:59:36.803Z,4.75
2023-05-10T01:04:40.596Z,4.36
2023-05-10T01:09:43.491Z,4.06
2023-05-10T01:14:46.983Z,3.88
2023-05-10T01:19:51.120Z,3.80
2023-05-10T01:25:00.196Z,3.76
2023-05-10T01:30:15.912Z,3.76
2023-05-10T01:35:39.480Z,3.77
2023-05-10T01:41:00.909Z,5.58
2023-05-10T01:46:12.125Z,9.98
2023-05-10T01:51:24.051Z,8.81
2023-05-10T01:56:29.343Z,7.04
2023-05-10T02:01:34.719Z,6.10
2023-05-10T02:06:39.640Z,5.50
2023-05-10T02:11:45.182Z,5.05
2023-05-10T02:16:50.051Z,6.08
2023-05-10T02:21:53.628Z,9.74
2023-05-10T02:26:58.374Z,8.40
2023-05-10T02:32:02.697Z,6.84
2023-05-10T02:37:07.180Z,5.97
2023-05-10T02:42:15.130Z,5.37
2023-05-10T02:47:19.800Z,4.93
2023-05-10T02:52:27.448Z,4.58
2023-05-10T02:57:34.926Z,4.34
2023-05-10T03:02:38.027Z,4.17
2023-05-10T03:07:41.105Z,4.06
2023-05-10T03:13:12.270Z,4.07
2023-05-10T03:18:22.500Z,4.22
2023-05-10T03:23:31.314Z,4.31
2023-05-10T03:28:35.910Z,4.26
2023-05-10T03:33:50.456Z,4.20
2023-05-10T03:38:53.376Z,4.17
2023-05-10T03:43:56.230Z,4.20
2023-05-10T03:48:59.101Z,4.27
2023-05-10T03:54:02.142Z,6.02
2023-05-10T03:59:08.502Z,10.37
2023-05-10T04:04:11.565Z,9.89
2023-05-10T04:09:15.162Z,8.20
2023-05-10T04:14:18.056Z,7.40
2023-05-10T04:19:21.429Z,6.99
2023-05-10T04:24:24.613Z,6.74
2023-05-10T04:29:29.730Z,6.59
2023-05-10T04:34:35.973Z,6.55
2023-05-10T04:39:42.188Z,6.61
2023-05-10T04:44:45.867Z,6.72
2023-05-10T04:49:48.713Z,6.88
2023-05-10T04:54:51.959Z,7.07
2023-05-10T04:59:54.666Z,7.30
2023-05-10T05:04:59.014Z,7.55
2023-05-10T05:10:01.886Z,7.82
2023-05-10T05:15:05.548Z,8.10
2023-05-10T05:20:10.520Z,8.38
2023-05-10T05:25:13.860Z,8.68
2023-05-10T05:30:16.978Z,9.00
2023-05-10T05:35:20.042Z,9.34
2023-05-10T05:40:23.441Z,9.68
2023-05-10T05:45:26.378Z,10.01
2023-05-10T05:50:29.233Z,10.34
2023-05-10T05:55:32.696Z,10.66
2023-05-10T06:00:35.886Z,10.99
2023-05-10T06:05:39.292Z,11.31
2023-05-10T06:10:42.423Z,11.62
2023-05-10T06:15:45.400Z,11.90
2023-05-10T06:20:48.263Z,12.19
2023-05-10T06:25:51.194Z,12.45
2023-05-10T06:30:54.189Z,12.70
2023-05-10T06:35:57.136Z,12.97
2023-05-10T06:41:01.258Z,13.22
2023-05-10T06:46:04.569Z,13.50
2023-05-10T06:51:07.648Z,13.76
2023-05-10T06:56:10.495Z,14.01
2023-05-10T07:01:14.021Z,14.25
2023-05-10T07:06:29.430Z,14.54
2023-05-10T07:11:36.570Z,14.81
2023-05-10T07:16:40.154Z,15.06
2023-05-10T07:21:45.358Z,15.23
2023-05-10T07:26:49.399Z,15.41
2023-05-10T07:31:52.487Z,15.55
2023-05-10T07:36:55.672Z,15.72
2023-05-10T07:41:59.929Z,15.89
2023-05-10T07:47:03.842Z,16.03
2023-05-10T07:52:06.758Z,16.17
2023-05-10T07:57:09.536Z,16.30
2023-05-10T08:02:12.495Z,16.45
2023-05-10T08:07:15.366Z,16.57
2023-05-10T08:12:18.244Z,16.69
2023-05-10T08:17:23.472Z,16.82
2023-05-10T08:22:28.494Z,16.98
2023-05-10T08:27:31.348Z,17.02
2023-05-10T08:32:34.310Z,17.05
2023-05-10T08:37:37.253Z,17.09
2023-05-10T08:42:44.067Z,17.20
2023-05-10T08:47:48.134Z,17.35
2023-05-10T08:52:55.142Z,17.42
2023-05-10T08:57:58.207Z,17.52
2023-05-10T09:03:02.133Z,17.58
2023-05-10T09:08:06.983Z,17.64
2023-05-10T09:13:11.555Z,17.73
2023-05-10T09:18:14.673Z,17.79
2023-05-10T09:23:17.614Z,17.88
2023-05-10T09:28:20.531Z,18.00
2023-05-10T09:33:23.421Z,18.06
2023-05-10T09:38:27.795Z,18.20
2023-05-10T09:43:39.012Z,18.37
2023-05-10T09:48:47.302Z,18.51
2023-05-10T09:54:10.620Z,18.63
2023-05-10T09:59:14.005Z,18.72
2023-05-10T10:04:17.262Z,18.77
2023-05-10T10:09:20.292Z,18.81
2023-05-10T10:14:24.968Z,18.84
2023-05-10T10:19:27.910Z,18.86
2023-05-10T10:24:30.886Z,18.93
2023-05-10T10:29:42.310Z,19.02
2023-05-10T10:34:45.248Z,19.10
2023-05-10T10:39:50.689Z,19.23
2023-05-10T10:45:13.282Z,19.37
2023-05-10T10:50:17.507Z,19.53
2023-05-10T10:55:26.059Z,19.65
2023-05-10T11:00:34.084Z,19.76
2023-05-10T11:05:41.594Z,19.83
2023-05-10T11:11:11.223Z,19.90
2023-05-10T11:16:16.636Z,19.99
2023-05-10T11:21:19.951Z,20.03
2023-05-10T11:26:26.274Z,20.09
2023-05-10T11:31:29.892Z,20.16
2023-05-10T11:36:37.407Z,20.19
2023-05-10T11:41:42.897Z,20.31
2023-05-10T11:46:45.983Z,20.48
2023-05-10T11:51:55.345Z,20.68
2023-05-10T11:56:58.177Z,20.81
2023-05-10T12:02:01.298Z,20.87
2023-05-10T12:07:04.468Z,20.93
2023-05-10T12:12:07.772Z,20.97
2023-05-10T12:17:14.506Z,21.04
2023-05-10T12:22:23.323Z,21.13
2023-05-10T12:27:41.613Z,21.16
2023-05-10T12:32:45.370Z,21.25
2023-05-10T12:37:49.007Z,21.40
2023-05-10T12:42:51.923Z,21.47
2023-05-10T12:47:54.908Z,21.45
2023-05-10T12:52:58.110Z,21.45
2023-05-10T12:58:01.230Z,21.50
2023-05-10T13:03:06.216Z,21.64
2023-05-10T13:08:09.025Z,21.73
2023-05-10T13:13:11.882Z,21.83
2023-05-10T13:18:14.690Z,21.82
2023-05-10T13:23:17.544Z,21.83
2023-05-10T13:28:20.516Z,22.00
2023-05-10T13:33:23.279Z,22.17
2023-05-10T13:38:26.829Z,22.33
2023-05-10T13:43:30.494Z,22.35
2023-05-10T13:48:33.272Z,22.45
2023-05-10T13:53:36.038Z,22.67
2023-05-10T13:58:38.839Z,22.92
2023-05-10T14:03:41.725Z,23.24
2023-05-10T14:08:44.774Z,23.56
2023-05-10T14:13:47.515Z,23.84
2023-05-10T14:18:50.387Z,24.18
2023-05-10T14:23:53.317Z,24.38
2023-05-10T14:28:56.201Z,24.61
2023-05-10T14:34:00.272Z,24.82
2023-05-10T14:39:03.942Z,24.91
2023-05-10T14:44:06.739Z,25.10
2023-05-10T14:49:09.632Z,25.34
2023-05-10T14:54:12.467Z,25.72
2023-05-10T14:59:15.328Z,26.06
2023-05-10T15:04:18.582Z,26.34
2023-05-10T15:09:21.860Z,26.62
2023-05-10T15:14:24.715Z,26.65
2023-05-10T15:19:27.490Z,26.80
2023-05-10T15:24:30.917Z,27.27
2023-05-10T15:29:35.345Z,27.68
2023-05-10T15:34:38.179Z,28.16
2023-05-10T15:39:41.009Z,28.60
2023-05-10T15:44:45.553Z,29.03
2023-05-10T15:49:48.560Z,29.28
2023-05-10T15:54:51.942Z,29.44
2023-05-10T15:59:54.818Z,29.53
2023-05-10T16:04:57.698Z,29.85
2023-05-10T16:10:04.145Z,30.39
2023-05-10T16:15:07.832Z,30.56
2023-05-10T16:20:11.220Z,30.81
2023-05-10T16:25:14.303Z,30.96
2023-05-10T16:30:17.276Z,31.16
2023-05-10T16:35:20.220Z,31.32
2023-05-10T16:40:24.099Z,31.58
2023-05-10T16:45:27.051Z,31.44
2023-05-10T16:50:29.902Z,31.39
2023-05-10T16:55:32.734Z,31.34
2023-05-10T17:00:36.395Z,31.18
2023-05-10T17:05:39.209Z,31.08
2023-05-10T17:10:42.085Z,31.19
2023-05-10T17:15:47.448Z,31.10
2023-05-10T17:20:50.864Z,30.71
2023-05-10T17:25:53.652Z,30.14
2023-05-10T17:31:00.217Z,29.13
2023-05-10T17:36:03.860Z,28.11
2023-05-10T17:41:06.731Z,26.43
2023-05-10T17:46:09.687Z,24.64
2023-05-10T17:51:12.796Z,22.99
2023-05-10T17:56:15.629Z,21.52
2023-05-10T18:01:18.590Z,20.31
2023-05-10T18:06:21.539Z,19.46
2023-05-10T18:11:24.404Z,18.76
2023-05-10T18:16:27.244Z,18.00
2023-05-10T18:21:30.046Z,17.28
2023-05-10T18:26:32.870Z,16.63
2023-05-10T18:31:35.804Z,16.04
2023-05-10T18:36:38.773Z,15.50
2023-05-10T18:41:41.542Z,15.01
2023-05-10T18:46:44.633Z,14.57
2023-05-10T18:51:47.506Z,14.17
2023-05-10T18:56:50.324Z,13.78
2023-05-10T19:01:54.893Z,13.43
2023-05-10T19:07:01.044Z,13.13
2023-05-10T19:12:03.992Z,12.84
2023-05-10T19:17:09.802Z,12.57
2023-05-10T19:22:13.451Z,12.31
2023-05-10T19:27:16.879Z,12.04
2023-05-10T19:32:19.818Z,11.80
2023-05-10T19:37:22.770Z,11.60
2023-05-10T19:42:25.642Z,11.40
2023-05-10T19:47:28.623Z,11.20
2023-05-10T19:52:31.467Z,11.02
2023-05-10T19:57:34.377Z,10.83
2023-05-10T20:02:37.244Z,10.65
2023-05-10T20:07:40.136Z,10.45
2023-05-10T20:12:52.239Z,10.29
2023-05-10T20:17:55.644Z,10.13
2023-05-10T20:22:58.547Z,9.95
2023-05-10T20:28:01.423Z,9.80
2023-05-10T20:33:04.490Z,9.68
2023-05-10T20:38:07.489Z,9.54
2023-05-10T20:43:10.763Z,9.38
2023-05-10T20:48:13.714Z,9.23
2023-05-10T20:53:18.606Z,9.11
2023-05-10T20:58:21.567Z,8.99
2023-05-10T21:03:24.414Z,8.87
2023-05-10T21:08:27.271Z,8.72
2023-05-10T21:13:30.345Z,8.52
2023-05-10T21:18:33.493Z,8.34
2023-05-10T21:23:36.350Z,8.16
2023-05-10T21:28:40.208Z,7.99
2023-05-10T21:33:43.568Z,7.84
2023-05-10T21:38:46.771Z,7.69
2023-05-10T21:43:49.612Z,7.55
2023-05-10T21:48:52.392Z,7.39
2023-05-10T21:53:55.263Z,7.24
2023-05-10T21:58:58.083Z,7.09
2023-05-10T22:04:01.279Z,6.96
2023-05-10T22:09:05.197Z,6.86
2023-05-10T22:14:08.088Z,6.77
2023-05-10T22:19:10.893Z,6.66
2023-05-10T22:24:13.827Z,6.56
2023-05-10T22:29:17.144Z,6.47
2023-05-10T22:34:19.855Z,6.37
2023-05-10T22:39:23.656Z,6.26
2023-05-10T22:44:26.485Z,6.18
2023-05-10T22:49:29.383Z,6.11
2023-05-10T22:54:33.750Z,6.01
2023-05-10T22:59:38.620Z,5.91
2023-05-10T23:04:41.506Z,5.83
2023-05-10T23:09:44.381Z,5.76
2023-05-10T23:14:47.765Z,5.71
2023-05-10T23:19:50.593Z,5.79
2023-05-10T23:24:53.388Z,5.94
2023-05-10T23:29:56.831Z,6.09
2023-05-10T23:34:59.595Z,6.21
2023-05-10T23:40:03.241Z,6.27
2023-05-10T23:45:06.799Z,6.26
2023-05-10T23:50:10.251Z,6.20
2023-05-10T23:55:13.177Z,6.12
